.
WxDataArchive / Data Records for 2013-01-15
2013-01-14 January 2013 2013-01-16

Data Records for Tuesday, 15 January 2013

Time	Temp	Chill	HIndex	Humid	Dewpt	 Wind 	HiWind	WindDir	Rain 	Barom 
-----	----	-----	------	-----	-----	------	------	-------	-----	----- 
00:00	16.1	16.1	16.1	85	12.4	0	0	---	0.00	30.439 
00:05	16.1	16.1	16.1	86	12.7	0	0	---	0.00	30.439 
00:10	15.9	15.9	15.9	86	12.5	0	0	---	0.00	30.439 
00:15	15.9	15.9	15.9	86	12.5	0	0	---	0.00	30.433 
00:20	15.7	15.7	15.7	86	12.3	0	0	---	0.00	30.433 
00:25	15.6	15.6	15.6	86	12.2	0	0	---	0.00	30.433 
00:30	15.6	15.6	15.6	86	12.2	0	0	---	0.00	30.431 
00:35	15.4	15.4	15.4	86	12.0	0	0	---	0.00	30.431 
00:40	15.4	15.4	15.4	86	12.0	0	0	---	0.00	30.431 
00:45	15.4	15.4	15.4	86	12.0	0	0	---	0.00	30.433 
00:50	15.4	15.4	15.4	86	12.0	0	0	---	0.00	30.433 
00:55	15.4	15.4	15.4	86	12.0	0	0	---	0.00	30.433 
01:00	15.2	15.2	15.2	86	11.8	0	0	---	0.00	30.435 
01:05	15.2	15.2	15.2	86	11.8	0	0	---	0.00	30.435 
01:10	15.4	15.4	15.4	86	12.0	0	0	---	0.00	30.435 
01:15	15.2	15.2	15.2	86	11.8	0	0	---	0.00	30.437 
01:20	15.2	15.2	15.2	86	11.8	0	0	---	0.00	30.437 
01:25	15.2	15.2	15.2	87	12.0	0	0	---	0.00	30.437 
01:30	15.2	15.2	15.2	87	12.0	0	0	---	0.00	30.434 
01:35	15.2	15.2	15.2	87	12.0	0	0	---	0.00	30.434 
01:40	15.2	15.2	15.2	87	12.0	0	0	---	0.00	30.434 
01:45	15.2	15.2	15.2	87	12.0	0	0	---	0.00	30.444 
01:50	15.2	15.2	15.2	87	12.0	0	0	---	0.00	30.444 
01:55	15.2	15.2	15.2	87	12.0	0	0	---	0.00	30.444 
02:00	15.2	15.2	15.2	87	12.0	0	0	---	0.00	30.443 
02:05	15.4	15.4	15.4	87	12.2	0	0	---	0.00	30.443 
02:10	15.2	15.2	15.2	87	12.0	0	0	---	0.00	30.443 
02:15	15.4	15.4	15.4	87	12.2	0	0	---	0.00	30.444 
02:20	15.4	15.4	15.4	87	12.2	0	0	---	0.00	30.444 
02:25	15.4	15.4	15.4	87	12.2	0	0	---	0.00	30.444 
02:30	15.4	15.4	15.4	87	12.2	0	0	---	0.00	30.444 
02:35	15.4	15.4	15.4	87	12.2	0	0	---	0.00	30.444 
02:40	15.2	15.2	15.2	87	12.0	0	0	---	0.00	30.444 
02:45	15.2	15.2	15.2	87	12.0	0	0	---	0.00	30.445 
02:50	14.9	14.9	14.9	87	11.7	0	0	---	0.00	30.445 
02:55	14.9	14.9	14.9	87	11.7	0	0	---	0.00	30.445 
03:00	14.8	14.8	14.8	87	11.6	0	0	---	0.00	30.443 
03:05	14.8	14.8	14.8	87	11.6	0	0	---	0.00	30.443 
03:10	14.8	14.8	14.8	87	11.6	0	0	---	0.00	30.443 
03:15	14.8	14.8	14.8	87	11.6	0	0	---	0.00	30.440 
03:20	14.6	14.6	14.6	87	11.4	0	0	---	0.00	30.440 
03:25	14.6	14.6	14.6	87	11.4	0	0	---	0.00	30.440 
03:30	14.4	14.4	14.4	87	11.3	0	0	---	0.00	30.441 
03:35	14.3	14.3	14.3	87	11.2	0	0	---	0.00	30.441 
03:40	14.3	14.3	14.3	87	11.2	0	0	---	0.00	30.441 
03:45	14.3	14.3	14.3	87	11.2	0	0	---	0.00	30.437 
03:50	14.4	14.4	14.4	87	11.3	0	0	---	0.00	30.437 
03:55	14.4	14.4	14.4	87	11.3	0	0	---	0.00	30.437 
04:00	14.4	14.4	14.4	87	11.3	0	0	---	0.00	30.437 
04:05	14.6	14.6	14.6	87	11.4	0	0	---	0.00	30.437 
04:10	14.6	14.6	14.6	87	11.4	0	0	---	0.00	30.437 
04:15	14.6	14.6	14.6	87	11.4	0	0	---	0.00	30.434 
04:20	14.6	14.6	14.6	87	11.4	0	0	---	0.00	30.434 
04:25	14.8	14.8	14.8	88	11.9	0	0	---	0.00	30.434 
04:30	15.2	15.2	15.2	88	12.3	0	0	---	0.00	30.426 
04:35	15.6	15.6	15.6	88	12.7	0	0	---	0.00	30.426 
04:40	15.7	15.7	15.7	88	12.8	0	0	---	0.00	30.426 
04:45	16.1	16.1	16.1	88	13.2	0	0	---	0.00	30.426 
04:50	16.1	16.1	16.1	88	13.2	0	0	---	0.00	30.426 
04:55	16.1	16.1	16.1	88	13.2	0	0	---	0.00	30.426 
05:00	16.1	16.1	16.1	87	12.9	0	0	---	0.00	30.429 
05:05	15.9	15.9	15.9	87	12.7	0	0	---	0.00	30.429 
05:10	15.9	15.9	15.9	87	12.7	0	0	---	0.00	30.429 
05:15	15.7	15.7	15.7	87	12.5	0	0	---	0.00	30.431 
05:20	15.6	15.6	15.6	87	12.4	0	0	---	0.00	30.431 
05:25	15.2	15.2	15.2	87	12.0	0	0	---	0.00	30.431 
05:30	15.1	15.1	15.1	87	11.9	0	0	---	0.00	30.432 
05:35	14.9	14.9	14.9	87	11.7	0	0	---	0.00	30.432 
05:40	14.8	14.8	14.8	87	11.6	0	0	---	0.00	30.432 
05:45	14.6	14.6	14.6	86	11.2	0	0	---	0.00	30.437 
05:50	14.4	14.4	14.4	86	11.0	0	0	---	0.00	30.437 
05:55	14.4	14.4	14.4	86	11.0	0	0	---	0.00	30.437 
06:00	14.3	14.3	14.3	86	10.9	0	0	---	0.00	30.441 
06:05	14.1	14.1	14.1	86	10.7	0	0	---	0.00	30.441 
06:10	14.0	14.0	14.0	86	10.6	0	0	---	0.00	30.441 
06:15	14.0	14.0	14.0	86	10.6	0	0	---	0.00	30.443 
06:20	14.0	14.0	14.0	86	10.6	0	0	---	0.00	30.443 
06:25	13.8	13.8	13.8	86	10.4	0	0	---	0.00	30.443 
06:30	13.8	13.8	13.8	86	10.4	0	0	---	0.00	30.441 
06:35	13.6	13.6	13.6	86	10.2	0	0	---	0.00	30.441 
06:40	13.6	13.6	13.6	86	10.2	0	0	---	0.00	30.441 
06:45	13.5	13.5	13.5	86	10.1	0	0	---	0.00	30.440 
06:50	13.5	13.5	13.5	86	10.1	0	0	---	0.00	30.440 
06:55	13.3	13.3	13.3	86	9.9	0	0	---	0.00	30.440 
07:00	13.3	13.3	13.3	86	9.9	0	0	---	0.00	30.442 
07:05	13.3	13.3	13.3	86	9.9	0	0	---	0.00	30.442 
07:10	13.1	13.1	13.1	86	9.7	0	0	---	0.00	30.442 
07:15	13.1	13.1	13.1	86	9.7	0	0	---	0.00	30.437 
07:20	13.1	13.1	13.1	86	9.7	0	0	---	0.00	30.437 
07:25	12.9	12.9	12.9	86	9.5	0	0	---	0.00	30.437 
07:30	12.9	12.9	12.9	86	9.5	0	0	---	0.00	30.438 
07:35	13.1	13.1	13.1	86	9.7	0	0	---	0.00	30.438 
07:40	13.1	13.1	13.1	86	9.7	0	0	---	0.00	30.438 
07:45	13.3	13.3	13.3	86	9.9	0	0	---	0.00	30.445 
07:50	13.3	13.3	13.3	86	9.9	0	0	---	0.00	30.445 
07:55	13.1	13.1	13.1	86	9.7	0	0	---	0.00	30.445 
08:00	13.1	13.1	13.1	86	9.7	0	0	---	0.00	30.448 
08:05	12.9	12.9	12.9	86	9.5	0	0	---	0.00	30.448 
08:10	12.9	12.9	12.9	86	9.5	0	0	---	0.00	30.448 
08:15	12.9	12.9	12.9	86	9.5	0	0	---	0.00	30.450 
08:20	12.9	12.9	12.9	86	9.5	0	0	---	0.00	30.450 
08:25	13.1	13.1	13.1	86	9.7	0	0	---	0.00	30.450 
08:30	13.1	13.1	13.1	87	10.0	0	0	---	0.00	30.450 
08:35	13.3	13.3	13.3	87	10.2	0	0	---	0.00	30.450 
08:40	13.5	13.5	13.5	87	10.4	0	0	---	0.00	30.450 
08:45	13.8	13.8	13.8	87	10.7	0	0	---	0.00	30.463 
08:50	14.1	14.1	14.1	87	11.0	0	0	---	0.00	30.463 
08:55	14.4	14.4	14.4	87	11.3	0	0	---	0.00	30.463 
09:00	14.8	14.8	14.8	88	11.9	0	0	---	0.00	30.449 
09:05	15.4	15.4	15.4	88	12.5	0	0	---	0.00	30.449 
09:10	16.1	16.1	16.1	89	13.4	0	0	---	0.00	30.449 
09:15	16.9	16.9	16.9	89	14.2	0	1	292	0.00	30.448 
09:20	18.0	18.0	18.0	89	15.3	1	3	292	0.00	30.448 
09:25	18.8	18.8	18.8	89	16.1	0	3	90	0.00	30.448 
09:30	19.5	19.5	19.5	88	16.5	0	3	90	0.00	30.450 
09:35	20.2	20.2	20.2	88	17.2	0	2	90	0.00	30.450 
09:40	21.0	21.0	21.0	87	17.8	1	3	90	0.00	30.450 
09:45	21.4	21.4	21.4	85	17.6	1	4	90	0.00	30.439 
09:50	21.9	21.9	21.9	84	17.8	1	3	90	0.00	30.439 
09:55	21.9	21.9	21.9	83	17.5	2	4	90	0.00	30.439 
10:00	21.9	21.9	21.9	82	17.3	2	4	90	0.00	30.426 
10:05	22.1	22.1	22.1	81	17.2	2	4	90	0.00	30.426 
10:10	22.2	22.2	22.2	81	17.3	2	5	90	0.00	30.426 
10:15	22.4	22.4	22.4	81	17.5	2	4	90	0.00	30.437 
10:20	22.7	22.7	22.7	80	17.5	1	3	90	0.00	30.437 
10:25	22.9	22.9	22.9	80	17.7	1	4	90	0.00	30.437 
10:30	23.3	23.3	23.3	80	18.1	0	2	90	0.00	30.445 
10:35	23.6	23.6	23.6	78	17.8	2	4	112	0.00	30.445 
10:40	23.6	23.6	23.6	78	17.8	1	3	112	0.00	30.445 
10:45	23.9	23.9	23.9	76	17.5	2	5	112	0.00	30.455 
10:50	24.1	24.1	24.1	75	17.3	2	5	90	0.00	30.455 
10:55	24.4	24.4	24.4	74	17.3	3	5	90	0.00	30.455 
11:00	24.7	24.7	24.7	75	17.9	2	5	112	0.00	30.449 
11:05	24.8	24.8	24.8	74	17.7	2	5	90	0.00	30.449 
11:10	24.8	24.8	24.8	74	17.7	2	5	90	0.00	30.449 
11:15	25.1	25.1	25.1	73	17.7	3	6	90	0.00	30.445 
11:20	25.3	25.3	25.3	73	17.9	2	6	90	0.00	30.445 
11:25	25.7	25.7	25.7	74	18.6	1	4	90	0.00	30.445 
11:30	25.7	25.7	25.7	73	18.3	2	7	90	0.00	30.440 
11:35	25.8	25.8	25.8	72	18.0	2	6	90	0.00	30.440 
11:40	26.0	26.0	26.0	72	18.2	2	5	112	0.00	30.440 
11:45	26.3	26.3	26.3	71	18.2	2	5	112	0.00	30.435 
11:50	26.3	26.3	26.3	70	17.9	2	5	112	0.00	30.435 
11:55	26.6	26.6	26.6	70	18.2	3	5	112	0.00	30.435 
12:00	26.6	26.6	26.6	70	18.2	2	5	90	0.00	30.418 
12:05	26.7	26.7	26.7	70	18.3	2	7	90	0.00	30.418 
12:10	26.7	26.7	26.7	71	18.6	2	6	90	0.00	30.418 
12:15	26.6	26.6	26.6	70	18.2	3	6	112	0.00	30.391 
12:20	26.7	26.7	26.7	74	19.5	3	6	90	0.00	30.391 
12:25	26.9	26.9	26.9	70	18.4	3	7	90	0.00	30.391 
12:30	26.7	22.0	26.7	70	18.3	4	7	90	0.00	30.372 
12:35	26.6	26.6	26.6	71	18.5	2	7	112	0.00	30.372 
12:40	27.2	27.2	27.2	70	18.7	3	6	90	0.00	30.372 
12:45	27.3	27.3	27.3	69	18.5	2	6	90	0.00	30.383 
12:50	27.6	27.6	27.6	70	19.1	2	9	90	0.00	30.383 
12:55	27.9	27.9	27.9	69	19.1	2	6	112	0.00	30.383 
13:00	27.9	27.9	27.9	68	18.7	2	7	112	0.00	30.377 
13:05	27.9	27.9	27.9	67	18.4	3	7	90	0.00	30.377 
13:10	27.8	23.2	27.8	66	17.9	4	9	90	0.00	30.377 
13:15	27.6	27.6	27.6	67	18.1	2	6	90	0.00	30.375 
13:20	27.8	27.8	27.8	67	18.3	2	6	112	0.00	30.375 
13:25	28.1	28.1	28.1	65	17.9	3	6	90	0.00	30.375 
13:30	28.1	28.1	28.1	67	18.6	2	6	90	0.00	30.364 
13:35	28.1	28.1	28.1	65	17.9	2	6	112	0.00	30.364 
13:40	27.9	23.3	27.9	66	18.0	4	7	90	0.00	30.364 
13:45	27.8	27.8	27.8	67	18.3	2	7	90	0.00	30.346 
13:50	28.2	28.2	28.2	69	19.4	1	4	90	0.00	30.346 
13:55	28.2	28.2	28.2	67	18.7	3	7	90	0.00	30.346 
14:00	28.2	28.2	28.2	68	19.0	2	10	90	0.00	30.327 
14:05	28.2	28.2	28.2	67	18.7	2	6	90	0.00	30.327 
14:10	28.1	28.1	28.1	67	18.6	3	7	90	0.00	30.327 
14:15	28.1	28.1	28.1	66	18.2	3	6	90	0.00	30.332 
14:20	28.1	28.1	28.1	67	18.6	2	6	90	0.00	30.332 
14:25	28.2	28.2	28.2	67	18.7	2	4	90	0.00	30.332 
14:30	28.2	28.2	28.2	67	18.7	2	5	90	0.00	30.332 
14:35	28.1	28.1	28.1	66	18.2	3	7	112	0.00	30.332 
14:40	27.9	27.9	27.9	66	18.0	3	6	112	0.00	30.332 
14:45	27.8	27.8	27.8	67	18.3	1	4	90	0.00	30.331 
14:50	27.9	27.9	27.9	67	18.4	2	5	112	0.00	30.331 
14:55	27.9	27.9	27.9	66	18.0	3	6	112	0.00	30.331 
15:00	27.9	27.9	27.9	66	18.0	2	5	90	0.00	30.344 
15:05	27.9	27.9	27.9	66	18.0	2	5	90	0.00	30.344 
15:10	28.1	28.1	28.1	66	18.2	3	6	90	0.00	30.344 
15:15	27.9	27.9	27.9	66	18.0	2	5	90	0.00	30.333 
15:20	27.9	27.9	27.9	66	18.0	2	6	112	0.00	30.333 
15:25	27.9	27.9	27.9	67	18.4	2	6	90	0.00	30.333 
15:30	28.1	28.1	28.1	66	18.2	2	4	90	0.00	30.325 
15:35	27.9	27.9	27.9	66	18.0	2	4	90	0.00	30.325 
15:40	27.9	27.9	27.9	66	18.0	2	5	90	0.00	30.325 
15:45	27.9	27.9	27.9	67	18.4	2	5	90	0.00	30.329 
15:50	27.9	27.9	27.9	67	18.4	1	5	90	0.00	30.329 
15:55	27.9	27.9	27.9	68	18.7	2	5	90	0.00	30.329 
16:00	27.8	27.8	27.8	67	18.3	2	5	68	0.00	30.329 
16:05	27.8	27.8	27.8	68	18.6	3	6	112	0.00	30.329 
16:10	27.6	27.6	27.6	67	18.1	2	6	90	0.00	30.329 
16:15	27.6	27.6	27.6	68	18.4	2	5	90	0.00	30.322 
16:20	27.6	27.6	27.6	67	18.1	3	7	112	0.00	30.322 
16:25	27.6	27.6	27.6	67	18.1	3	6	90	0.00	30.322 
16:30	27.6	27.6	27.6	68	18.4	2	5	90	0.00	30.320 
16:35	27.6	27.6	27.6	68	18.4	2	7	90	0.00	30.320 
16:40	27.6	27.6	27.6	68	18.4	2	6	90	0.00	30.320 
16:45	27.6	27.6	27.6	67	18.1	1	5	90	0.00	30.326 
16:50	27.6	27.6	27.6	67	18.1	1	5	112	0.00	30.326 
16:55	27.6	27.6	27.6	67	18.1	2	5	112	0.00	30.326 
17:00	27.5	27.5	27.5	67	18.0	2	5	90	0.00	30.314 
17:05	27.5	27.5	27.5	68	18.3	1	4	90	0.00	30.314 
17:10	27.5	27.5	27.5	68	18.3	0	2	112	0.00	30.314 
17:15	27.5	27.5	27.5	68	18.3	0	2	112	0.00	30.328 
17:20	27.5	27.5	27.5	67	18.0	1	3	112	0.00	30.328 
17:25	27.5	27.5	27.5	68	18.3	1	3	112	0.00	30.328 
17:30	27.5	27.5	27.5	67	18.0	1	4	112	0.00	30.314 
17:35	27.3	27.3	27.3	68	18.2	1	2	112	0.00	30.314 
17:40	27.3	27.3	27.3	68	18.2	0	2	112	0.00	30.314 
17:45	27.3	27.3	27.3	68	18.2	0	2	112	0.00	30.314 
17:50	27.3	27.3	27.3	68	18.2	0	1	112	0.00	30.314 
17:55	27.2	27.2	27.2	68	18.1	0	2	112	0.00	30.314 
18:00	27.2	27.2	27.2	69	18.4	0	1	112	0.00	30.314 
18:05	27.0	27.0	27.0	69	18.2	0	2	112	0.00	30.314 
18:10	27.0	27.0	27.0	69	18.2	0	1	112	0.00	30.314 
18:15	27.0	27.0	27.0	70	18.5	0	1	112	0.00	30.313 
18:20	26.9	26.9	26.9	70	18.4	0	1	112	0.00	30.313 
18:25	26.9	26.9	26.9	70	18.4	0	0	---	0.00	30.313 
18:30	26.9	26.9	26.9	71	18.8	0	0	---	0.00	30.294 
18:35	26.9	26.9	26.9	71	18.8	0	1	112	0.00	30.294 
18:40	26.9	26.9	26.9	72	19.1	0	2	112	0.00	30.294 
18:45	26.9	26.9	26.9	72	19.1	0	1	112	0.00	30.301 
18:50	26.9	26.9	26.9	72	19.1	0	1	112	0.00	30.301 
18:55	26.9	26.9	26.9	72	19.1	0	2	112	0.00	30.301 
19:00	27.0	27.0	27.0	72	19.2	0	2	112	0.00	30.298 
19:05	27.0	27.0	27.0	73	19.5	0	0	---	0.00	30.298 
19:10	27.0	27.0	27.0	73	19.5	0	0	---	0.00	30.298 
19:15	27.0	27.0	27.0	73	19.5	0	1	112	0.00	30.285 
19:20	27.0	27.0	27.0	73	19.5	0	1	112	0.00	30.285 
19:25	27.0	27.0	27.0	73	19.5	0	1	112	0.00	30.285 
19:30	27.0	27.0	27.0	73	19.5	0	1	112	0.00	30.278 
19:35	27.0	27.0	27.0	74	19.8	0	0	---	0.00	30.278 
19:40	27.0	27.0	27.0	73	19.5	0	2	112	0.00	30.278 
19:45	26.9	26.9	26.9	73	19.4	0	2	112	0.00	30.277 
19:50	27.0	27.0	27.0	73	19.5	0	2	112	0.00	30.277 
19:55	27.0	27.0	27.0	73	19.5	1	2	112	0.00	30.277 
20:00	27.0	27.0	27.0	73	19.5	0	4	112	0.00	30.267 
20:05	27.0	27.0	27.0	73	19.5	0	2	112	0.00	30.267 
20:10	27.0	27.0	27.0	73	19.5	0	2	112	0.00	30.267 
20:15	27.0	27.0	27.0	73	19.5	0	2	112	0.00	30.257 
20:20	27.0	27.0	27.0	73	19.5	0	1	112	0.00	30.257 
20:25	27.0	27.0	27.0	73	19.5	0	1	112	0.00	30.257 
20:30	27.0	27.0	27.0	74	19.8	0	3	112	0.00	30.248 
20:35	26.9	26.9	26.9	74	19.7	0	1	112	0.00	30.248 
20:40	26.9	26.9	26.9	74	19.7	0	2	112	0.00	30.248 
20:45	26.9	26.9	26.9	74	19.7	0	2	112	0.00	30.245 
20:50	26.9	26.9	26.9	74	19.7	1	3	112	0.00	30.245 
20:55	26.9	26.9	26.9	74	19.7	0	2	112	0.00	30.245 
21:00	26.9	26.9	26.9	75	20.1	0	2	112	0.00	30.244 
21:05	26.7	26.7	26.7	75	19.9	0	2	112	0.00	30.244 
21:10	26.7	26.7	26.7	75	19.9	0	1	112	0.00	30.244 
21:15	26.6	26.6	26.6	75	19.8	0	0	---	0.00	30.229 
21:20	26.6	26.6	26.6	76	20.1	0	1	112	0.00	30.229 
21:25	26.6	26.6	26.6	76	20.1	0	1	112	0.00	30.229 
21:30	26.4	26.4	26.4	76	19.9	0	2	112	0.00	30.223 
21:35	26.4	26.4	26.4	76	19.9	0	3	112	0.00	30.223 
21:40	26.4	26.4	26.4	77	20.2	0	0	---	0.00	30.223 
21:45	26.3	26.3	26.3	77	20.1	0	1	112	0.00	30.206 
21:50	26.3	26.3	26.3	77	20.1	0	0	---	0.00	30.206 
21:55	26.1	26.1	26.1	78	20.2	0	0	---	0.00	30.206 
22:00	26.0	26.0	26.0	78	20.1	0	1	112	0.00	30.204 
22:05	25.8	25.8	25.8	78	19.9	0	0	---	0.00	30.204 
22:10	25.7	25.7	25.7	78	19.8	0	0	---	0.00	30.204 
22:15	25.6	25.6	25.6	78	19.7	0	0	---	0.00	30.200 
22:20	25.4	25.4	25.4	79	19.8	0	1	112	0.00	30.200 
22:25	25.4	25.4	25.4	79	19.8	0	1	112	0.00	30.200 
22:30	25.3	25.3	25.3	79	19.7	0	0	---	0.00	30.192 
22:35	25.0	25.0	25.0	80	19.7	0	0	---	0.00	30.192 
22:40	24.8	24.8	24.8	80	19.5	0	0	---	0.00	30.192 
22:45	24.8	24.8	24.8	80	19.5	0	0	---	0.00	30.193 
22:50	24.7	24.7	24.7	80	19.4	0	0	---	0.00	30.193 
22:55	24.7	24.7	24.7	81	19.7	0	1	112	0.00	30.193 
23:00	24.5	24.5	24.5	81	19.5	0	0	---	0.00	30.175 
23:05	24.4	24.4	24.4	81	19.4	0	0	---	0.00	30.175 
23:10	24.4	24.4	24.4	81	19.4	0	0	---	0.00	30.175 
23:15	24.2	24.2	24.2	81	19.2	0	0	---	0.00	30.168 
23:20	24.2	24.2	24.2	82	19.5	0	1	112	0.00	30.168 
23:25	24.4	24.4	24.4	82	19.7	0	2	112	0.00	30.168 
23:30	24.5	24.5	24.5	82	19.8	0	1	112	0.00	30.159 
23:35	24.7	24.7	24.7	81	19.7	0	2	112	0.00	30.159 
23:40	24.7	24.7	24.7	81	19.7	0	1	112	0.00	30.159 
23:45	24.7	24.7	24.7	81	19.7	0	1	112	0.00	30.158 
23:50	24.7	24.7	24.7	81	19.7	0	3	112	0.00	30.158 
23:55	24.7	24.7	24.7	81	19.7	0	2	112	0.00	30.158 

CoCoRaHS
IN-AL-39
A2 Web Hosting
Creative Commons License
GoDaddy
search engine by freefind advanced

loaded 2018-11-12 15:20:12 • last modified 2010-11-18 10:43:29
Privacy PolicyDisclaimer
• wx.awcolley.com is powered by PmWiki v.2002016 •
• all content (unless otherwise noted) © 2018 A W Colley